createdAt,value
2023-01-05T00:00:39.870Z,52.07
2023-01-05T00:03:10.256Z,40.50
2023-01-05T00:05:38.545Z,59.80
2023-01-05T00:08:06.974Z,43.37
2023-01-05T00:10:55.289Z,46.13
2023-01-05T00:13:40.999Z,45.63
2023-01-05T00:16:39.749Z,43.67
2023-01-05T00:19:29.563Z,43.97
2023-01-05T00:22:15.048Z,46.13
2023-01-05T00:24:43.431Z,47.03
2023-01-05T00:27:12.487Z,47.00
2023-01-05T00:29:40.607Z,48.43
2023-01-05T00:32:08.794Z,51.87
2023-01-05T00:34:38.331Z,39.70
2023-01-05T00:37:06.763Z,29.60
2023-01-05T00:39:34.924Z,60.77
2023-01-05T00:42:03.298Z,48.60
2023-01-05T00:44:31.590Z,47.70
2023-01-05T00:46:59.871Z,39.90
2023-01-05T00:49:27.920Z,48.87
2023-01-05T00:51:57.579Z,59.97
2023-01-05T00:54:25.603Z,39.37
2023-01-05T00:56:53.668Z,48.17
2023-01-05T00:59:21.804Z,40.07
2023-01-05T01:01:51.459Z,47.63
2023-01-05T01:04:22.698Z,48.83
2023-01-05T01:06:51.897Z,43.87
2023-01-05T01:09:21.575Z,39.57
2023-01-05T01:14:18.386Z,34.57
2023-01-05T01:16:47.595Z,52.90
2023-01-05T01:19:17.909Z,29.00
2023-01-05T01:21:46.011Z,49.13
2023-01-05T01:24:18.814Z,49.10
2023-01-05T01:26:48.756Z,40.93
2023-01-05T01:29:17.527Z,37.07
2023-01-05T01:31:45.946Z,27.93
2023-01-05T01:34:16.943Z,26.63
2023-01-05T01:36:45.847Z,33.60
2023-01-05T01:39:15.884Z,33.80
2023-01-05T01:41:44.252Z,34.43
2023-01-05T01:45:01.660Z,17.87
2023-01-05T01:47:37.049Z,36.40
2023-01-05T01:50:12.464Z,40.53
2023-01-05T01:52:42.176Z,34.77
2023-01-05T01:55:12.081Z,37.03
2023-01-05T01:57:40.835Z,43.80
2023-01-05T02:00:14.993Z,41.70
2023-01-05T02:02:43.443Z,32.17
2023-01-05T02:05:16.973Z,45.03
2023-01-05T02:07:49.879Z,22.80
2023-01-05T02:10:21.214Z,33.77
2023-01-05T02:13:10.516Z,52.97
2023-01-05T02:15:49.033Z,29.67
2023-01-05T02:18:34.983Z,17.20
2023-01-05T02:21:23.648Z,32.50
2023-01-05T02:24:42.676Z,25.33
2023-01-05T02:27:52.139Z,28.10
2023-01-05T02:30:59.562Z,17.13
2023-01-05T02:33:39.833Z,28.53
2023-01-05T02:36:22.265Z,29.77
2023-01-05T02:38:58.969Z,34.33
2023-01-05T02:41:33.931Z,24.57
2023-01-05T02:44:03.565Z,30.83
2023-01-05T02:46:32.114Z,23.27
2023-01-05T02:49:05.713Z,18.93
2023-01-05T02:51:37.725Z,31.80
2023-01-05T02:54:10.757Z,26.37
2023-01-05T02:56:43.763Z,37.67
2023-01-05T02:59:18.201Z,32.87
2023-01-05T03:01:50.462Z,34.20
2023-01-05T03:04:23.850Z,20.10
2023-01-05T03:06:56.706Z,26.40
2023-01-05T03:09:28.822Z,21.90
2023-01-05T03:12:19.805Z,23.40
2023-01-05T03:14:50.010Z,21.77
2023-01-05T03:17:23.631Z,20.20
2023-01-05T03:19:54.813Z,21.43
2023-01-05T03:22:44.976Z,16.63
2023-01-05T03:25:34.247Z,20.70
2023-01-05T03:28:20.828Z,26.10
2023-01-05T03:31:13.463Z,22.03
2023-01-05T03:34:04.145Z,15.03
2023-01-05T03:36:39.438Z,17.17
2023-01-05T03:39:12.724Z,15.17
2023-01-05T03:41:41.102Z,11.97
2023-01-05T03:44:09.573Z,13.20
2023-01-05T03:46:37.664Z,15.03
2023-01-05T03:49:05.987Z,13.73
2023-01-05T03:51:41.400Z,12.27
2023-01-05T03:54:10.557Z,12.80
2023-01-05T03:56:38.590Z,10.00
2023-01-05T03:59:06.616Z,8.43
2023-01-05T04:01:34.734Z,12.03
2023-01-05T04:04:02.899Z,5.93
2023-01-05T04:06:31.245Z,6.03
2023-01-05T04:09:00.766Z,4.63
2023-01-05T04:11:28.723Z,7.13
2023-01-05T04:13:56.874Z,9.00
2023-01-05T04:16:25.329Z,18.40
2023-01-05T04:18:53.428Z,8.33
2023-01-05T04:21:21.595Z,10.03
2023-01-05T04:23:49.864Z,13.33
2023-01-05T04:26:19.477Z,12.20
2023-01-05T04:28:47.650Z,10.50
2023-01-05T04:31:16.214Z,11.93
2023-01-05T04:33:45.624Z,15.03
2023-01-05T04:36:13.635Z,4.60
2023-01-05T04:38:41.774Z,22.97
2023-01-05T04:41:09.821Z,10.93
2023-01-05T04:43:39.753Z,16.97
2023-01-05T04:46:08.056Z,7.67
2023-01-05T04:48:36.301Z,21.30
2023-01-05T04:51:04.464Z,25.87
2023-01-05T04:53:33.707Z,28.70
2023-01-05T04:56:01.939Z,21.43
2023-01-05T04:58:30.127Z,26.73
2023-01-05T05:00:59.765Z,24.30
2023-01-05T05:03:32.772Z,14.17
2023-01-05T05:06:03.316Z,23.53
2023-01-05T05:08:32.856Z,28.97
2023-01-05T05:11:02.702Z,23.63
2023-01-05T05:13:31.595Z,26.43
2023-01-05T05:16:01.508Z,17.37
2023-01-05T05:18:29.803Z,28.90
2023-01-05T05:20:57.910Z,38.03
2023-01-05T05:23:25.896Z,36.13
2023-01-05T05:25:54.944Z,22.23
2023-01-05T05:28:28.380Z,33.10
2023-01-05T05:30:57.431Z,38.27
2023-01-05T05:33:27.201Z,41.90
2023-01-05T05:35:55.371Z,40.63
2023-01-05T05:38:23.409Z,32.83
2023-01-05T05:40:51.944Z,53.27
2023-01-05T05:43:20.134Z,41.20
2023-01-05T05:45:52.167Z,37.10
2023-01-05T05:48:20.464Z,36.23
2023-01-05T05:50:49.994Z,43.40
2023-01-05T05:53:18.008Z,51.83
2023-01-05T05:55:49.956Z,34.00
2023-01-05T05:58:19.051Z,40.47
2023-01-05T06:00:47.578Z,42.00
2023-01-05T06:03:15.869Z,28.37
2023-01-05T06:05:44.022Z,42.53
2023-01-05T06:08:13.489Z,34.47
2023-01-05T06:10:41.485Z,36.77
2023-01-05T06:13:09.819Z,52.73
2023-01-05T06:15:37.895Z,34.40
2023-01-05T06:18:06.023Z,26.00
2023-01-05T06:20:34.133Z,46.43
2023-01-05T06:23:02.333Z,28.80
2023-01-05T06:25:32.126Z,42.03
2023-01-05T06:28:00.555Z,32.13
2023-01-05T06:30:29.316Z,33.17
2023-01-05T06:32:57.545Z,29.90
2023-01-05T06:35:25.660Z,33.57
2023-01-05T06:37:53.808Z,17.33
2023-01-05T06:40:21.910Z,20.07
2023-01-05T06:42:51.636Z,31.57
2023-01-05T06:45:19.705Z,22.17
2023-01-05T06:47:48.127Z,38.47
2023-01-05T06:50:16.554Z,23.33
2023-01-05T06:52:44.640Z,29.60
2023-01-05T06:55:13.747Z,31.63
2023-01-05T06:57:41.821Z,20.97
2023-01-05T07:00:13.532Z,27.67
2023-01-05T07:02:41.809Z,39.23
2023-01-05T07:05:10.967Z,31.00
2023-01-05T07:07:39.332Z,32.77
2023-01-05T07:10:10.007Z,32.93
2023-01-05T07:12:38.420Z,29.80
2023-01-05T07:15:07.582Z,27.77
2023-01-05T07:17:37.743Z,24.73
2023-01-05T07:20:06.554Z,21.90
2023-01-05T07:22:34.747Z,15.77
2023-01-05T07:25:02.788Z,13.50
2023-01-05T07:27:31.803Z,30.97
2023-01-05T07:29:59.817Z,31.50
2023-01-05T07:32:27.805Z,31.57
2023-01-05T07:34:57.187Z,21.87
2023-01-05T07:37:25.815Z,14.30
2023-01-05T07:39:53.908Z,13.93
2023-01-05T07:42:22.131Z,16.63
2023-01-05T07:44:50.120Z,17.63
2023-01-05T07:47:18.117Z,11.37
2023-01-05T07:49:46.478Z,9.70
2023-01-05T07:52:17.095Z,21.63
2023-01-05T07:54:45.376Z,17.03
2023-01-05T07:57:13.439Z,20.47
2023-01-05T07:59:41.475Z,17.47
2023-01-05T08:02:10.745Z,25.97
2023-01-05T08:04:39.024Z,16.90
2023-01-05T08:07:11.497Z,23.17
2023-01-05T08:09:58.851Z,17.33
2023-01-05T08:12:27.036Z,26.50
2023-01-05T08:14:53.970Z,19.50
2023-01-05T08:17:22.371Z,24.83
2023-01-05T08:19:50.407Z,18.90
2023-01-05T08:22:18.578Z,30.30
2023-01-05T08:24:48.368Z,27.40
2023-01-05T08:27:16.406Z,22.90
2023-01-05T08:29:47.009Z,24.60
2023-01-05T08:32:17.485Z,29.00
2023-01-05T08:37:37.721Z,20.67
2023-01-05T08:40:15.076Z,23.27
2023-01-05T08:42:43.809Z,24.80
2023-01-05T08:45:12.547Z,23.97
2023-01-05T08:47:40.447Z,26.63
2023-01-05T08:50:10.476Z,27.60
2023-01-05T08:52:40.193Z,19.47
2023-01-05T08:55:10.053Z,21.73
2023-01-05T08:57:38.171Z,23.37
2023-01-05T09:00:07.265Z,20.93
2023-01-05T09:02:35.358Z,25.50
2023-01-05T09:05:04.643Z,17.07
2023-01-05T09:07:32.649Z,25.50
2023-01-05T09:10:00.647Z,19.47
2023-01-05T09:12:33.176Z,17.37
2023-01-05T09:15:01.401Z,22.10
2023-01-05T09:17:29.513Z,26.63
2023-01-05T09:19:57.464Z,18.33
2023-01-05T09:22:25.414Z,17.03
2023-01-05T09:24:53.313Z,27.83
2023-01-05T09:27:21.381Z,38.97
2023-01-05T09:29:50.755Z,22.57
2023-01-05T09:32:19.380Z,20.03
2023-01-05T09:34:47.416Z,22.77
2023-01-05T09:37:15.335Z,28.97
2023-01-05T09:39:43.660Z,21.43
2023-01-05T09:42:17.366Z,26.37
2023-01-05T09:44:52.662Z,28.00
2023-01-05T09:47:31.020Z,30.43
2023-01-05T09:50:00.302Z,28.30
2023-01-05T09:52:34.464Z,31.83
2023-01-05T09:55:14.395Z,32.37
2023-01-05T09:57:43.071Z,20.33
2023-01-05T10:00:18.301Z,32.03
2023-01-05T10:02:52.550Z,30.90
2023-01-05T10:05:22.893Z,29.90
2023-01-05T10:07:54.913Z,36.43
2023-01-05T10:10:34.595Z,21.73
2023-01-05T10:13:04.510Z,29.50
2023-01-05T10:15:38.648Z,33.40
2023-01-05T10:18:17.145Z,30.57
2023-01-05T10:20:55.769Z,30.37
2023-01-05T10:23:42.704Z,26.73
2023-01-05T10:26:18.763Z,23.80
2023-01-05T10:28:53.017Z,33.93
2023-01-05T10:31:25.283Z,14.57
2023-01-05T10:34:05.058Z,26.83
2023-01-05T10:37:08.436Z,24.47
2023-01-05T10:39:57.050Z,25.87
2023-01-05T10:42:37.840Z,26.13
2023-01-05T10:45:10.530Z,34.00
2023-01-05T10:47:40.751Z,30.00
2023-01-05T10:50:28.892Z,30.30
2023-01-05T10:52:56.907Z,30.83
2023-01-05T10:55:26.498Z,22.50
2023-01-05T10:57:54.454Z,18.60
2023-01-05T11:00:40.197Z,25.20
2023-01-05T11:03:16.041Z,19.27
2023-01-05T11:05:47.838Z,19.17
2023-01-05T11:08:19.133Z,17.23
2023-01-05T11:10:53.413Z,21.70
2023-01-05T11:13:31.097Z,15.90
2023-01-05T11:16:03.538Z,13.27
2023-01-05T11:18:36.073Z,16.30
2023-01-05T11:21:22.624Z,14.47
2023-01-05T11:23:52.705Z,30.77
2023-01-05T11:26:27.206Z,23.37
2023-01-05T11:29:03.871Z,18.07
2023-01-05T11:31:37.591Z,17.80
2023-01-05T11:34:10.907Z,23.07
2023-01-05T11:36:41.704Z,16.47
2023-01-05T11:39:20.125Z,34.13
2023-01-05T11:41:48.097Z,23.57
2023-01-05T11:44:22.139Z,29.07
2023-01-05T11:46:51.047Z,28.53
2023-01-05T11:49:22.478Z,26.23
2023-01-05T11:51:52.096Z,24.97
2023-01-05T11:54:33.218Z,27.37
2023-01-05T11:57:16.056Z,33.13
2023-01-05T11:59:45.188Z,30.70
2023-01-05T12:02:35.688Z,15.40
2023-01-05T12:05:18.848Z,19.50
2023-01-05T12:07:53.935Z,19.90
2023-01-05T12:10:43.730Z,19.83
2023-01-05T12:13:29.013Z,25.23
2023-01-05T12:16:11.572Z,16.73
2023-01-05T12:19:03.817Z,15.77
2023-01-05T12:21:38.207Z,19.47
2023-01-05T12:24:40.140Z,13.60
2023-01-05T12:27:20.594Z,14.10
2023-01-05T12:36:26.135Z,10.83
2023-01-05T12:39:10.914Z,8.63
2023-01-05T12:41:57.901Z,8.23
2023-01-05T12:44:46.511Z,14.37
2023-01-05T12:47:29.765Z,19.27
2023-01-05T12:50:03.643Z,13.57
2023-01-05T12:52:36.975Z,13.77
2023-01-05T12:55:15.953Z,12.63
2023-01-05T12:57:49.425Z,19.37
2023-01-05T13:00:19.869Z,16.27
2023-01-05T13:02:53.854Z,13.93
2023-01-05T13:05:28.916Z,13.57
2023-01-05T13:08:02.271Z,9.93
2023-01-05T13:10:39.770Z,14.97
2023-01-05T13:13:14.843Z,19.17
2023-01-05T13:15:51.995Z,14.77
2023-01-05T13:18:23.379Z,15.10
2023-01-05T13:20:56.721Z,17.70
2023-01-05T13:23:29.595Z,7.63
2023-01-05T13:26:01.094Z,14.20
2023-01-05T13:28:32.026Z,9.57
2023-01-05T13:31:31.346Z,9.10
2023-01-05T13:34:25.138Z,7.40
2023-01-05T13:37:15.826Z,9.10
2023-01-05T13:40:01.794Z,4.47
2023-01-05T13:43:05.421Z,3.40
2023-01-05T13:46:08.983Z,2.67
2023-01-05T13:49:04.041Z,3.90
2023-01-05T13:51:53.904Z,2.67
2023-01-05T13:54:43.606Z,5.60
2023-01-05T13:57:25.200Z,4.17
2023-01-05T14:00:06.578Z,3.33
2023-01-05T14:02:43.137Z,7.50
2023-01-05T14:05:24.149Z,5.07
2023-01-05T14:07:52.823Z,4.10
2023-01-05T14:10:24.877Z,6.30
2023-01-05T14:12:54.412Z,5.97
2023-01-05T14:15:37.710Z,6.43
2023-01-05T14:18:06.165Z,8.80
2023-01-05T14:20:44.774Z,5.57
2023-01-05T14:23:50.143Z,11.67
2023-01-05T14:26:18.109Z,8.27
2023-01-05T14:28:49.264Z,12.80
2023-01-05T14:31:53.089Z,7.83
2023-01-05T14:34:23.893Z,11.37
2023-01-05T14:37:06.490Z,11.67
2023-01-05T14:39:43.367Z,8.37
2023-01-05T14:42:20.518Z,7.20
2023-01-05T14:44:52.068Z,8.97
2023-01-05T14:47:35.453Z,6.57
2023-01-05T14:50:05.283Z,9.73
2023-01-05T14:52:57.887Z,12.47
2023-01-05T14:55:38.443Z,14.23
2023-01-05T14:58:13.474Z,13.17
2023-01-05T15:00:54.881Z,10.20
2023-01-05T15:03:36.786Z,11.17
2023-01-05T15:06:09.884Z,15.87
2023-01-05T15:09:07.079Z,12.33
2023-01-05T15:12:10.917Z,17.37
2023-01-05T15:15:02.293Z,12.93
2023-01-05T15:18:08.589Z,14.10
2023-01-05T15:21:01.775Z,9.73
2023-01-05T15:24:03.575Z,14.10
2023-01-05T15:26:50.064Z,17.73
2023-01-05T15:29:54.068Z,10.27
2023-01-05T15:32:26.719Z,10.77
2023-01-05T15:35:01.600Z,18.80
2023-01-05T15:37:35.472Z,16.00
2023-01-05T15:40:07.782Z,14.27
2023-01-05T15:42:40.051Z,10.03
2023-01-05T15:45:17.514Z,13.37
2023-01-05T15:47:46.819Z,8.30
2023-01-05T15:50:20.528Z,11.27
2023-01-05T15:52:55.082Z,8.90
2023-01-05T15:55:25.798Z,8.30
2023-01-05T15:57:55.861Z,6.10
2023-01-05T16:00:26.867Z,6.30
2023-01-05T16:02:55.446Z,8.43
2023-01-05T16:05:26.930Z,10.63
2023-01-05T16:07:57.925Z,8.60
2023-01-05T16:10:32.149Z,13.37
2023-01-05T16:13:05.186Z,8.20
2023-01-05T16:15:37.081Z,14.27
2023-01-05T16:18:07.949Z,11.50
2023-01-05T16:20:38.684Z,13.27
2023-01-05T16:23:11.758Z,7.47
2023-01-05T16:25:44.795Z,10.00
2023-01-05T16:28:18.295Z,11.53
2023-01-05T16:30:48.019Z,6.93
2023-01-05T16:33:34.955Z,9.23
2023-01-05T16:36:19.051Z,10.43
2023-01-05T16:38:47.532Z,8.47
2023-01-05T16:41:22.767Z,9.17
2023-01-05T16:43:57.345Z,9.13
2023-01-05T16:46:35.384Z,9.60
2023-01-05T16:49:24.921Z,7.50
2023-01-05T16:51:53.938Z,7.70
2023-01-05T16:54:24.769Z,7.43
2023-01-05T16:56:59.326Z,8.30
2023-01-05T16:59:48.247Z,10.20
2023-01-05T17:02:47.392Z,12.50
2023-01-05T17:05:18.441Z,7.43
2023-01-05T17:07:49.149Z,8.97
2023-01-05T17:10:21.305Z,7.23
2023-01-05T17:12:55.676Z,9.73
2023-01-05T17:15:29.610Z,11.93
2023-01-05T17:17:57.819Z,6.37
2023-01-05T17:20:29.992Z,9.93
2023-01-05T17:22:58.389Z,8.00
2023-01-05T17:25:33.864Z,7.03
2023-01-05T17:28:03.334Z,11.07
2023-01-05T17:30:31.347Z,10.90
2023-01-05T17:32:59.361Z,9.67
2023-01-05T17:35:27.341Z,9.97
2023-01-05T17:37:55.287Z,15.87
2023-01-05T17:40:23.647Z,13.87
2023-01-05T17:42:51.748Z,13.50
2023-01-05T17:45:23.448Z,12.97
2023-01-05T17:47:52.543Z,14.53
2023-01-05T17:50:22.333Z,11.57
2023-01-05T17:52:50.439Z,12.80
2023-01-05T17:55:18.459Z,15.50
2023-01-05T17:57:46.577Z,17.83
2023-01-05T18:00:19.473Z,13.70
2023-01-05T18:02:52.158Z,13.30
2023-01-05T18:05:21.241Z,16.97
2023-01-05T18:07:49.400Z,22.03
2023-01-05T18:10:21.462Z,18.90
2023-01-05T18:12:49.717Z,19.30
2023-01-05T18:15:17.961Z,13.27
2023-01-05T18:17:46.181Z,17.40
2023-01-05T18:20:18.726Z,13.60
2023-01-05T18:22:49.381Z,17.80
2023-01-05T18:25:17.489Z,10.00
2023-01-05T18:27:45.383Z,19.47
2023-01-05T18:30:14.799Z,11.33
2023-01-05T18:32:43.411Z,17.63
2023-01-05T18:35:11.759Z,8.83
2023-01-05T18:37:41.869Z,12.87
2023-01-05T18:40:11.499Z,15.47
2023-01-05T18:42:40.211Z,6.97
2023-01-05T18:45:25.559Z,8.03
2023-01-05T18:47:57.733Z,6.77
2023-01-05T18:50:26.411Z,8.57
2023-01-05T18:52:55.870Z,9.77
2023-01-05T18:55:23.897Z,8.33
2023-01-05T18:57:51.876Z,11.70
2023-01-05T19:00:20.122Z,11.43
2023-01-05T19:02:48.291Z,11.47
2023-01-05T19:05:16.657Z,14.50
2023-01-05T19:07:44.611Z,10.17
2023-01-05T19:10:14.171Z,14.87
2023-01-05T19:12:42.195Z,8.37
2023-01-05T19:15:11.354Z,7.20
2023-01-05T19:17:39.242Z,11.17
2023-01-05T19:20:07.941Z,8.63
2023-01-05T19:22:36.043Z,8.07
2023-01-05T19:25:05.673Z,11.90
2023-01-05T19:27:36.202Z,13.10
2023-01-05T19:30:04.468Z,10.13
2023-01-05T19:32:33.591Z,9.70
2023-01-05T19:35:01.567Z,9.13
2023-01-05T19:37:29.681Z,9.43
2023-01-05T19:39:57.916Z,15.10
2023-01-05T19:42:26.055Z,9.47
2023-01-05T19:44:55.568Z,10.83
2023-01-05T19:47:23.623Z,10.70
2023-01-05T19:49:53.182Z,14.93
2023-01-05T19:52:21.313Z,8.60
2023-01-05T19:54:49.245Z,10.70
2023-01-05T19:57:17.224Z,10.00
2023-01-05T19:59:45.224Z,8.30
2023-01-05T20:02:14.653Z,9.47
2023-01-05T20:04:45.618Z,9.17
2023-01-05T20:07:14.133Z,7.47
2023-01-05T20:09:42.213Z,9.80
2023-01-05T20:12:14.925Z,13.13
2023-01-05T20:14:44.210Z,12.37
2023-01-05T20:17:14.911Z,12.13
2023-01-05T20:19:42.800Z,10.90
2023-01-05T20:22:14.575Z,11.73
2023-01-05T20:24:43.327Z,11.90
2023-01-05T20:27:13.246Z,12.40
2023-01-05T20:29:41.573Z,13.77
2023-01-05T20:32:14.135Z,13.23
2023-01-05T20:34:45.859Z,9.33
2023-01-05T20:37:13.883Z,10.83
2023-01-05T20:39:43.358Z,12.03
2023-01-05T20:42:11.872Z,9.87
2023-01-05T20:44:42.802Z,8.97
2023-01-05T20:47:11.542Z,7.93
2023-01-05T20:49:40.886Z,11.70
2023-01-05T20:52:11.642Z,11.20
2023-01-05T20:54:40.097Z,12.23
2023-01-05T20:57:08.983Z,9.23
2023-01-05T20:59:41.001Z,10.40
2023-01-05T21:02:22.521Z,11.50
2023-01-05T21:04:55.699Z,11.97
2023-01-05T21:07:25.281Z,11.87
2023-01-05T21:09:54.399Z,9.80
2023-01-05T21:12:22.760Z,10.43
2023-01-05T21:14:52.194Z,9.40
2023-01-05T21:17:20.465Z,8.80
2023-01-05T21:19:48.349Z,12.07
2023-01-05T21:22:16.314Z,13.87
2023-01-05T21:24:46.440Z,10.53
2023-01-05T21:27:14.385Z,3.07
2023-01-05T21:29:43.773Z,4.30
2023-01-05T21:32:12.002Z,3.30
2023-01-05T21:34:40.331Z,13.07
2023-01-05T21:37:08.565Z,15.23
2023-01-05T21:39:36.562Z,31.57
2023-01-05T21:42:23.782Z,11.10
2023-01-05T21:44:51.787Z,19.20
2023-01-05T21:47:19.739Z,113.03
2023-01-05T21:49:47.872Z,24.87
2023-01-05T21:52:33.453Z,8.13
2023-01-05T21:55:18.667Z,9.80
2023-01-05T21:57:48.106Z,19.57
2023-01-05T22:00:16.908Z,9.30
2023-01-05T22:02:44.886Z,8.50
2023-01-05T22:05:12.876Z,20.37
2023-01-05T22:07:40.836Z,13.03
2023-01-05T22:10:09.984Z,22.63
2023-01-05T22:12:38.102Z,7.07
2023-01-05T22:15:08.576Z,8.30
2023-01-05T22:17:36.645Z,12.70
2023-01-05T22:20:05.085Z,7.63
2023-01-05T22:22:32.999Z,9.07
2023-01-05T22:25:00.935Z,6.10
2023-01-05T22:27:30.667Z,14.17
2023-01-05T22:29:58.620Z,10.37
2023-01-05T22:32:27.966Z,10.27
2023-01-05T22:34:55.922Z,19.80
2023-01-05T22:37:23.793Z,7.27
2023-01-05T22:39:51.719Z,28.60
2023-01-05T22:42:19.541Z,13.40
2023-01-05T22:44:47.407Z,9.37
2023-01-05T22:47:15.333Z,12.10
2023-01-05T22:49:44.762Z,9.80
2023-01-05T22:52:12.709Z,13.87
2023-01-05T22:54:40.693Z,6.30
2023-01-05T22:57:08.588Z,5.30
2023-01-05T22:59:36.466Z,5.97
2023-01-05T23:02:04.410Z,9.23
2023-01-05T23:04:32.526Z,14.27
2023-01-05T23:07:01.840Z,9.00
2023-01-05T23:09:29.852Z,11.37
2023-01-05T23:11:57.753Z,8.07
2023-01-05T23:14:25.742Z,8.53
2023-01-05T23:16:53.735Z,8.37
2023-01-05T23:19:21.785Z,6.60
2023-01-05T23:21:49.829Z,18.63
2023-01-05T23:24:19.182Z,14.07
2023-01-05T23:26:47.397Z,21.00
2023-01-05T23:29:15.304Z,17.73
2023-01-05T23:31:43.245Z,14.77
2023-01-05T23:34:11.190Z,18.10
2023-01-05T23:36:39.168Z,9.17
2023-01-05T23:39:07.200Z,14.13
2023-01-05T23:41:36.538Z,14.60
2023-01-05T23:44:04.695Z,15.53
2023-01-05T23:46:32.883Z,10.50
2023-01-05T23:49:01.099Z,17.20
2023-01-05T23:51:29.052Z,15.07
2023-01-05T23:53:58.557Z,9.17
2023-01-05T23:56:28.666Z,16.73
2023-01-05T23:58:59.954Z,16.10
